sensor_id;sensor_type;location;lat;lon;timestamp;pressure;altitude;pressure_sealevel;temperature;humidity
62800;BME280;48842;51.046;13.796;2023-02-18T00:01:59;100573.56;;;11.83;61.52
62800;BME280;48842;51.046;13.796;2023-02-18T00:04:25;100573.56;;;11.86;61.67
62800;BME280;48842;51.046;13.796;2023-02-18T00:06:50;100570.06;;;11.88;61.41
62800;BME280;48842;51.046;13.796;2023-02-18T00:09:15;100577.06;;;11.88;61.15
62800;BME280;48842;51.046;13.796;2023-02-18T00:11:41;100577.06;;;11.88;61.18
62800;BME280;48842;51.046;13.796;2023-02-18T00:14:11;100574.41;;;11.85;60.95
62800;BME280;48842;51.046;13.796;2023-02-18T00:16:36;100575.28;;;11.85;61.10
62800;BME280;48842;51.046;13.796;2023-02-18T00:19:04;100561.31;;;11.88;60.58
62800;BME280;48842;51.046;13.796;2023-02-18T00:21:32;100568.31;;;11.89;60.66
62800;BME280;48842;51.046;13.796;2023-02-18T00:23:58;100560.44;;;11.89;60.75
62800;BME280;48842;51.046;13.796;2023-02-18T00:26:23;100569.16;;;11.86;60.32
62800;BME280;48842;51.046;13.796;2023-02-18T00:28:49;100566.53;;;11.83;60.52
62800;BME280;48842;51.046;13.796;2023-02-18T00:31:23;100563.00;;;11.78;60.60
62800;BME280;48842;51.046;13.796;2023-02-18T00:33:49;100571.78;;;11.77;60.53
62800;BME280;48842;51.046;13.796;2023-02-18T00:36:16;100566.53;;;11.77;60.56
62800;BME280;48842;51.046;13.796;2023-02-18T00:38:46;100574.41;;;11.76;59.90
62800;BME280;48842;51.046;13.796;2023-02-18T00:41:12;100568.25;;;11.77;60.18
62800;BME280;48842;51.046;13.796;2023-02-18T00:43:38;100568.25;;;11.77;60.19
62800;BME280;48842;51.046;13.796;2023-02-18T00:46:03;100572.66;;;11.79;60.17
62800;BME280;48842;51.046;13.796;2023-02-18T00:48:28;100577.91;;;11.78;60.19
62800;BME280;48842;51.046;13.796;2023-02-18T00:50:53;100566.53;;;11.76;59.58
62800;BME280;48842;51.046;13.796;2023-02-18T00:53:19;100576.97;;;11.69;59.94
62800;BME280;48842;51.046;13.796;2023-02-18T00:55:46;100564.75;;;11.68;59.98
62800;BME280;48842;51.046;13.796;2023-02-18T00:58:14;100574.34;;;11.69;59.57
62800;BME280;48842;51.046;13.796;2023-02-18T01:00:40;100563.00;;;11.70;60.11
62800;BME280;48842;51.046;13.796;2023-02-18T01:03:05;100569.13;;;11.68;59.36
62800;BME280;48842;51.046;13.796;2023-02-18T01:05:35;100570.88;;;11.67;59.79
62800;BME280;48842;51.046;13.796;2023-02-18T01:08:00;100570.00;;;11.68;59.86
62800;BME280;48842;51.046;13.796;2023-02-18T01:10:26;100570.00;;;11.68;59.70
62800;BME280;48842;51.046;13.796;2023-02-18T01:12:51;100570.00;;;11.68;59.84
62800;BME280;48842;51.046;13.796;2023-02-18T01:15:17;100570.88;;;11.69;59.62
62800;BME280;48842;51.046;13.796;2023-02-18T01:17:42;100578.75;;;11.69;59.84
62800;BME280;48842;51.046;13.796;2023-02-18T01:20:11;100573.50;;;11.69;59.25
62800;BME280;48842;51.046;13.796;2023-02-18T01:22:36;100577.88;;;11.68;59.20
62800;BME280;48842;51.046;13.796;2023-02-18T01:25:03;100587.47;;;11.66;59.42
62800;BME280;48842;51.046;13.796;2023-02-18T01:27:28;100585.75;;;11.62;59.32
62800;BME280;48842;51.046;13.796;2023-02-18T01:29:54;100592.72;;;11.63;59.05
62800;BME280;48842;51.046;13.796;2023-02-18T01:32:19;100580.44;;;11.59;58.93
62800;BME280;48842;51.046;13.796;2023-02-18T01:34:44;100568.22;;;11.55;58.95
62800;BME280;48842;51.046;13.796;2023-02-18T01:37:11;100583.06;;;11.55;58.58
62800;BME280;48842;51.046;13.796;2023-02-18T01:39:36;100576.03;;;11.49;58.72
62800;BME280;48842;51.046;13.796;2023-02-18T01:42:01;100576.03;;;11.46;58.49
62800;BME280;48842;51.046;13.796;2023-02-18T01:44:27;100583.03;;;11.44;58.68
62800;BME280;48842;51.046;13.796;2023-02-18T01:46:53;100567.28;;;11.41;58.69
62800;BME280;48842;51.046;13.796;2023-02-18T01:49:27;100564.66;;;11.38;58.98
62800;BME280;48842;51.046;13.796;2023-02-18T01:51:58;100573.38;;;11.33;58.47
62800;BME280;48842;51.046;13.796;2023-02-18T01:54:35;100569.84;;;11.34;58.63
62800;BME280;48842;51.046;13.796;2023-02-18T01:57:06;100569.84;;;11.34;59.22
62800;BME280;48842;51.046;13.796;2023-02-18T01:59:38;100566.38;;;11.35;59.04
62800;BME280;48842;51.046;13.796;2023-02-18T02:02:08;100580.34;;;11.31;59.18
62800;BME280;48842;51.046;13.796;2023-02-18T02:04:35;100580.34;;;11.30;58.75
62800;BME280;48842;51.046;13.796;2023-02-18T02:07:00;100575.09;;;11.31;58.75
62800;BME280;48842;51.046;13.796;2023-02-18T02:09:28;100567.22;;;11.30;58.79
62800;BME280;48842;51.046;13.796;2023-02-18T02:18:04;100589.94;;;11.28;58.82
62800;BME280;48842;51.046;13.796;2023-02-18T02:20:47;100600.44;;;11.29;59.62
62800;BME280;48842;51.046;13.796;2023-02-18T02:23:34;100593.44;;;11.25;59.11
62800;BME280;48842;51.046;13.796;2023-02-18T02:26:41;100590.81;;;11.25;59.54
62800;BME280;48842;51.046;13.796;2023-02-18T02:34:52;100591.66;;;11.20;59.77
62800;BME280;48842;51.046;13.796;2023-02-18T02:40:06;100580.28;;;11.19;59.74
62800;BME280;48842;51.046;13.796;2023-02-18T02:42:45;100576.81;;;11.20;59.31
62800;BME280;48842;51.046;13.796;2023-02-18T02:45:37;100582.91;;;11.19;59.08
62800;BME280;48842;51.046;13.796;2023-02-18T02:48:21;100590.78;;;11.19;59.36
62800;BME280;48842;51.046;13.796;2023-02-18T02:50:54;100598.66;;;11.21;59.44
62800;BME280;48842;51.046;13.796;2023-02-18T02:53:25;100594.28;;;11.21;59.20
62800;BME280;48842;51.046;13.796;2023-02-18T02:55:51;100590.78;;;11.17;59.34
62800;BME280;48842;51.046;13.796;2023-02-18T02:58:18;100588.16;;;11.16;58.67
62800;BME280;48842;51.046;13.796;2023-02-18T03:01:12;100586.34;;;11.06;58.47
62800;BME280;48842;51.046;13.796;2023-02-18T03:03:53;100587.22;;;11.11;58.71
62800;BME280;48842;51.046;13.796;2023-02-18T03:07:13;100580.25;;;11.10;58.12
62800;BME280;48842;51.046;13.796;2023-02-18T03:10:04;100592.47;;;11.14;58.18
62800;BME280;48842;51.046;13.796;2023-02-18T03:12:40;100581.13;;;11.16;57.84
62800;BME280;48842;51.046;13.796;2023-02-18T03:15:39;100590.75;;;11.16;57.22
62800;BME280;48842;51.046;13.796;2023-02-18T03:18:21;100585.50;;;11.13;56.19
62800;BME280;48842;51.046;13.796;2023-02-18T03:20:52;100583.78;;;11.21;56.46
62800;BME280;48842;51.046;13.796;2023-02-18T03:23:24;100604.75;;;11.18;55.53
62800;BME280;48842;51.046;13.796;2023-02-18T03:25:51;100591.63;;;11.18;55.49
62800;BME280;48842;51.046;13.796;2023-02-18T03:28:19;100585.53;;;11.22;55.63
62800;BME280;48842;51.046;13.796;2023-02-18T03:30:58;100588.16;;;11.22;54.98
62800;BME280;48842;51.046;13.796;2023-02-18T03:33:28;100576.78;;;11.17;54.91
62800;BME280;48842;51.046;13.796;2023-02-18T03:35:55;100575.03;;;11.17;54.51
62800;BME280;48842;51.046;13.796;2023-02-18T03:38:49;100581.13;;;11.10;54.21
62800;BME280;48842;51.046;13.796;2023-02-18T03:41:17;100589.00;;;11.12;54.62
62800;BME280;48842;51.046;13.796;2023-02-18T03:44:12;100594.22;;;11.12;54.12
62800;BME280;48842;51.046;13.796;2023-02-18T03:46:40;100584.59;;;11.12;54.57
62800;BME280;48842;51.046;13.796;2023-02-18T03:49:08;100591.59;;;11.12;54.79
62800;BME280;48842;51.046;13.796;2023-02-18T03:51:34;100580.25;;;11.13;54.48
62800;BME280;48842;51.046;13.796;2023-02-18T03:53:59;100581.13;;;11.16;55.22
62800;BME280;48842;51.046;13.796;2023-02-18T03:56:24;100576.78;;;11.17;54.63
62800;BME280;48842;51.046;13.796;2023-02-18T03:58:50;100578.53;;;11.16;55.21
62800;BME280;48842;51.046;13.796;2023-02-18T04:01:15;100580.28;;;11.19;54.84
62800;BME280;48842;51.046;13.796;2023-02-18T04:03:41;100583.78;;;11.21;55.13
62800;BME280;48842;51.046;13.796;2023-02-18T04:06:07;100590.78;;;11.22;55.36
62800;BME280;48842;51.046;13.796;2023-02-18T04:08:32;100589.03;;;11.20;55.08
62800;BME280;48842;51.046;13.796;2023-02-18T04:10:57;100583.78;;;11.18;55.28
62800;BME280;48842;51.046;13.796;2023-02-18T04:13:23;100585.53;;;11.21;55.28
62800;BME280;48842;51.046;13.796;2023-02-18T04:15:49;100582.91;;;11.21;55.65
62800;BME280;48842;51.046;13.796;2023-02-18T04:18:15;100578.53;;;11.21;55.90
62800;BME280;48842;51.046;13.796;2023-02-18T04:20:40;100600.41;;;11.23;55.52
62800;BME280;48842;51.046;13.796;2023-02-18T04:23:06;100599.50;;;11.21;55.64
62800;BME280;48842;51.046;13.796;2023-02-18T04:25:31;100589.91;;;11.20;55.91
62800;BME280;48842;51.046;13.796;2023-02-18T04:27:56;100586.41;;;11.21;56.10
62800;BME280;48842;51.046;13.796;2023-02-18T04:30:22;100583.78;;;11.21;55.90
62800;BME280;48842;51.046;13.796;2023-02-18T04:32:47;100592.53;;;11.20;56.09
62800;BME280;48842;51.046;13.796;2023-02-18T04:35:13;100592.53;;;11.20;56.02
62800;BME280;48842;51.046;13.796;2023-02-18T04:37:38;100596.03;;;11.19;56.04
62800;BME280;48842;51.046;13.796;2023-02-18T04:40:04;100584.66;;;11.18;56.12
62800;BME280;48842;51.046;13.796;2023-02-18T04:42:29;100580.28;;;11.19;56.48
62800;BME280;48842;51.046;13.796;2023-02-18T04:44:54;100562.78;;;11.18;56.72
62800;BME280;48842;51.046;13.796;2023-02-18T04:47:20;100561.94;;;11.17;56.72
62800;BME280;48842;51.046;13.796;2023-02-18T04:49:45;100563.69;;;11.20;56.31
62800;BME280;48842;51.046;13.796;2023-02-18T04:52:10;100584.69;;;11.22;56.95
62800;BME280;48842;51.046;13.796;2023-02-18T04:54:36;100578.53;;;11.20;56.83
62800;BME280;48842;51.046;13.796;2023-02-18T04:57:01;100585.53;;;11.19;57.23
62800;BME280;48842;51.046;13.796;2023-02-18T04:59:26;100586.38;;;11.18;57.02
62800;BME280;48842;51.046;13.796;2023-02-18T05:01:51;100589.91;;;11.18;57.41
62800;BME280;48842;51.046;13.796;2023-02-18T05:04:17;100587.28;;;11.20;57.47
62800;BME280;48842;51.046;13.796;2023-02-18T05:06:43;100586.41;;;11.21;57.29
62800;BME280;48842;51.046;13.796;2023-02-18T05:09:09;100588.16;;;11.21;58.00
62800;BME280;48842;51.046;13.796;2023-02-18T05:11:34;100584.66;;;11.18;58.02
62800;BME280;48842;51.046;13.796;2023-02-18T05:14:00;100579.38;;;11.14;58.22
62800;BME280;48842;51.046;13.796;2023-02-18T05:16:25;100576.75;;;11.14;57.96
62800;BME280;48842;51.046;13.796;2023-02-18T05:18:50;100581.97;;;11.11;57.78
62800;BME280;48842;51.046;13.796;2023-02-18T05:21:16;100576.75;;;11.12;58.09
62800;BME280;48842;51.046;13.796;2023-02-18T05:23:41;100568.88;;;11.14;57.84
62800;BME280;48842;51.046;13.796;2023-02-18T05:26:06;100558.41;;;11.15;57.79
62800;BME280;48842;51.046;13.796;2023-02-18T05:28:32;100562.78;;;11.15;57.88
62800;BME280;48842;51.046;13.796;2023-02-18T05:30:57;100562.78;;;11.16;58.27
62800;BME280;48842;51.046;13.796;2023-02-18T05:33:22;100554.06;;;11.17;57.81
62800;BME280;48842;51.046;13.796;2023-02-18T05:35:48;100553.22;;;11.22;57.80
62800;BME280;48842;51.046;13.796;2023-02-18T05:38:13;100552.31;;;11.21;58.12
62800;BME280;48842;51.046;13.796;2023-02-18T05:40:39;100559.31;;;11.22;58.20
62800;BME280;48842;51.046;13.796;2023-02-18T05:43:04;100557.56;;;11.24;58.33
62800;BME280;48842;51.046;13.796;2023-02-18T05:45:29;100554.09;;;11.28;58.38
62800;BME280;48842;51.046;13.796;2023-02-18T05:47:54;100546.25;;;11.30;58.21
62800;BME280;48842;51.046;13.796;2023-02-18T05:50:20;100549.78;;;11.33;58.22
62800;BME280;48842;51.046;13.796;2023-02-18T05:52:45;100546.25;;;11.34;58.58
62800;BME280;48842;51.046;13.796;2023-02-18T05:55:10;100540.16;;;11.35;58.28
62800;BME280;48842;51.046;13.796;2023-02-18T05:57:36;100529.66;;;11.39;58.03
62800;BME280;48842;51.046;13.796;2023-02-18T06:00:02;100527.03;;;11.40;58.73
62800;BME280;48842;51.046;13.796;2023-02-18T06:02:28;100535.81;;;11.41;58.34
62800;BME280;48842;51.046;13.796;2023-02-18T06:04:53;100534.06;;;11.43;58.45
62800;BME280;48842;51.046;13.796;2023-02-18T06:07:18;100532.34;;;11.45;58.71
62800;BME280;48842;51.046;13.796;2023-02-18T06:09:45;100530.56;;;11.47;58.84
62800;BME280;48842;51.046;13.796;2023-02-18T06:12:10;100534.06;;;11.47;59.50
62800;BME280;48842;51.046;13.796;2023-02-18T06:14:35;100532.34;;;11.46;59.71
62800;BME280;48842;51.046;13.796;2023-02-18T06:17:01;100527.97;;;11.47;60.03
62800;BME280;48842;51.046;13.796;2023-02-18T06:19:26;100532.34;;;11.45;60.15
62800;BME280;48842;51.046;13.796;2023-02-18T06:21:51;100534.97;;;11.45;60.05
62800;BME280;48842;51.046;13.796;2023-02-18T06:24:16;100531.44;;;11.46;60.57
62800;BME280;48842;51.046;13.796;2023-02-18T06:26:42;100536.69;;;11.46;60.59
62800;BME280;48842;51.046;13.796;2023-02-18T06:29:07;100537.59;;;11.45;61.28
62800;BME280;48842;51.046;13.796;2023-02-18T06:31:32;100538.44;;;11.45;61.55
62800;BME280;48842;51.046;13.796;2023-02-18T06:33:58;100540.19;;;11.45;62.03
62800;BME280;48842;51.046;13.796;2023-02-18T06:36:23;100534.97;;;11.45;62.53
62800;BME280;48842;51.046;13.796;2023-02-18T06:38:48;100535.81;;;11.45;62.85
62800;BME280;48842;51.046;13.796;2023-02-18T06:41:14;100527.94;;;11.44;63.02
62800;BME280;48842;51.046;13.796;2023-02-18T06:43:39;100526.19;;;11.43;62.95
62800;BME280;48842;51.046;13.796;2023-02-18T06:46:05;100522.69;;;11.44;63.23
62800;BME280;48842;51.046;13.796;2023-02-18T06:48:31;100522.69;;;11.44;63.97
62800;BME280;48842;51.046;13.796;2023-02-18T06:50:57;100522.69;;;11.44;64.08
62800;BME280;48842;51.046;13.796;2023-02-18T06:53:22;100519.19;;;11.43;64.06
62800;BME280;48842;51.046;13.796;2023-02-18T06:55:47;100513.06;;;11.43;64.67
62800;BME280;48842;51.046;13.796;2023-02-18T06:58:14;100516.56;;;11.42;65.09
62800;BME280;48842;51.046;13.796;2023-02-18T07:00:40;100518.31;;;11.41;65.41
62800;BME280;48842;51.046;13.796;2023-02-18T07:03:06;100520.94;;;11.40;65.51
62800;BME280;48842;51.046;13.796;2023-02-18T07:05:31;100519.19;;;11.39;65.80
62800;BME280;48842;51.046;13.796;2023-02-18T07:07:57;100513.06;;;11.38;65.68
62800;BME280;48842;51.046;13.796;2023-02-18T07:10:22;100511.31;;;11.39;65.76
62800;BME280;48842;51.046;13.796;2023-02-18T07:12:48;100508.69;;;11.39;66.28
62800;BME280;48842;51.046;13.796;2023-02-18T07:15:13;100503.44;;;11.42;66.07
62800;BME280;48842;51.046;13.796;2023-02-18T07:17:39;100501.72;;;11.41;66.06
62800;BME280;48842;51.046;13.796;2023-02-18T07:20:05;100506.97;;;11.42;66.32
62800;BME280;48842;51.046;13.796;2023-02-18T07:22:30;100499.09;;;11.44;66.58
62800;BME280;48842;51.046;13.796;2023-02-18T07:24:56;100490.38;;;11.45;66.36
62800;BME280;48842;51.046;13.796;2023-02-18T07:27:21;100489.47;;;11.46;66.99
62800;BME280;48842;51.046;13.796;2023-02-18T07:29:47;100485.97;;;11.44;66.90
62800;BME280;48842;51.046;13.796;2023-02-18T07:32:14;100488.59;;;11.45;67.16
62800;BME280;48842;51.046;13.796;2023-02-18T07:34:39;100472.88;;;11.45;67.07
62800;BME280;48842;51.046;13.796;2023-02-18T07:37:05;100477.25;;;11.45;67.42
62800;BME280;48842;51.046;13.796;2023-02-18T07:39:34;100472.88;;;11.44;67.37
62800;BME280;48842;51.046;13.796;2023-02-18T07:42:01;100468.47;;;11.44;67.21
62800;BME280;48842;51.046;13.796;2023-02-18T07:44:26;100467.63;;;11.47;67.24
62800;BME280;48842;51.046;13.796;2023-02-18T07:46:52;100461.50;;;11.48;67.65
62800;BME280;48842;51.046;13.796;2023-02-18T07:49:17;100461.50;;;11.48;67.71
62800;BME280;48842;51.046;13.796;2023-02-18T07:51:42;100463.25;;;11.47;67.69
62800;BME280;48842;51.046;13.796;2023-02-18T07:54:10;100444.88;;;11.46;67.64
62800;BME280;48842;51.046;13.796;2023-02-18T07:56:35;100439.63;;;11.43;67.80
62800;BME280;48842;51.046;13.796;2023-02-18T07:59:01;100448.38;;;11.42;68.12
62800;BME280;48842;51.046;13.796;2023-02-18T08:01:26;100439.63;;;11.41;68.20
62800;BME280;48842;51.046;13.796;2023-02-18T08:03:51;100448.38;;;11.42;68.26
62800;BME280;48842;51.046;13.796;2023-02-18T08:06:24;100444.00;;;11.41;67.89
62800;BME280;48842;51.046;13.796;2023-02-18T08:08:50;100424.75;;;11.42;68.57
62800;BME280;48842;51.046;13.796;2023-02-18T08:11:15;100418.66;;;11.44;68.48
62800;BME280;48842;51.046;13.796;2023-02-18T08:13:40;100417.78;;;11.45;68.31
62800;BME280;48842;51.046;13.796;2023-02-18T08:16:06;100415.16;;;11.48;68.71
62800;BME280;48842;51.046;13.796;2023-02-18T08:18:31;100413.41;;;11.50;68.71
62800;BME280;48842;51.046;13.796;2023-02-18T08:20:57;100402.91;;;11.50;68.66
62800;BME280;48842;51.046;13.796;2023-02-18T08:23:22;100402.94;;;11.53;68.62
62800;BME280;48842;51.046;13.796;2023-02-18T08:25:51;100402.03;;;11.56;68.19
62800;BME280;48842;51.046;13.796;2023-02-18T08:28:18;100397.69;;;11.60;68.44
62800;BME280;48842;51.046;13.796;2023-02-18T08:30:48;100397.69;;;11.64;68.39
62800;BME280;48842;51.046;13.796;2023-02-18T08:33:15;100394.19;;;11.68;68.43
62800;BME280;48842;51.046;13.796;2023-02-18T08:35:41;100383.69;;;11.70;68.69
62800;BME280;48842;51.046;13.796;2023-02-18T08:38:07;100381.94;;;11.74;68.80
62800;BME280;48842;51.046;13.796;2023-02-18T08:40:32;100381.06;;;11.76;68.61
62800;BME280;48842;51.046;13.796;2023-02-18T08:42:57;100372.31;;;11.77;68.64
62800;BME280;48842;51.046;13.796;2023-02-18T08:45:23;100381.06;;;11.78;68.59
62800;BME280;48842;51.046;13.796;2023-02-18T08:47:48;100364.44;;;11.80;69.11
62800;BME280;48842;51.046;13.796;2023-02-18T08:50:13;100360.06;;;11.84;68.84
62800;BME280;48842;51.046;13.796;2023-02-18T08:52:40;100352.19;;;11.85;69.17
62800;BME280;48842;51.046;13.796;2023-02-18T08:55:06;100365.31;;;11.87;69.05
62800;BME280;48842;51.046;13.796;2023-02-18T08:57:31;100354.81;;;11.90;68.72
62800;BME280;48842;51.046;13.796;2023-02-18T08:59:56;100350.44;;;11.92;68.91
62800;BME280;48842;51.046;13.796;2023-02-18T09:02:22;100347.84;;;11.95;68.69
62800;BME280;48842;51.046;13.796;2023-02-18T09:04:47;100337.34;;;11.95;68.87
62800;BME280;48842;51.046;13.796;2023-02-18T09:07:12;100332.97;;;11.97;68.78
62800;BME280;48842;51.046;13.796;2023-02-18T09:09:37;100335.59;;;12.00;69.00
62800;BME280;48842;51.046;13.796;2023-02-18T09:12:03;100328.56;;;12.02;68.57
62800;BME280;48842;51.046;13.796;2023-02-18T09:14:28;100324.19;;;12.03;68.42
62800;BME280;48842;51.046;13.796;2023-02-18T09:16:55;100305.81;;;12.03;68.80
62800;BME280;48842;51.046;13.796;2023-02-18T09:19:21;100314.56;;;12.03;68.84
62800;BME280;48842;51.046;13.796;2023-02-18T09:21:46;100297.91;;;12.06;68.68
62800;BME280;48842;51.046;13.796;2023-02-18T09:24:11;100305.81;;;12.11;68.78
62800;BME280;48842;51.046;13.796;2023-02-18T09:26:37;100309.28;;;12.16;68.33
62800;BME280;48842;51.046;13.796;2023-02-18T09:29:03;100304.91;;;12.15;68.44
62800;BME280;48842;51.046;13.796;2023-02-18T09:31:29;100302.28;;;12.15;68.25
62800;BME280;48842;51.046;13.796;2023-02-18T09:33:59;100290.91;;;12.16;68.59
62800;BME280;48842;51.046;13.796;2023-02-18T09:36:25;100276.91;;;12.18;68.63
62800;BME280;48842;51.046;13.796;2023-02-18T09:38:51;100274.25;;;12.23;68.57
62800;BME280;48842;51.046;13.796;2023-02-18T09:43:45;100263.69;;;12.35;68.16
62800;BME280;48842;51.046;13.796;2023-02-18T09:46:25;100254.03;;;12.39;68.37
62800;BME280;48842;51.046;13.796;2023-02-18T09:48:52;100265.41;;;12.39;68.39
62800;BME280;48842;51.046;13.796;2023-02-18T09:51:18;100251.38;;;12.44;68.28
62800;BME280;48842;51.046;13.796;2023-02-18T09:53:44;100254.00;;;12.45;68.73
62800;BME280;48842;51.046;13.796;2023-02-18T09:56:16;100251.38;;;12.47;68.33
62800;BME280;48842;51.046;13.796;2023-02-18T09:58:45;100251.38;;;12.51;68.05
62800;BME280;48842;51.046;13.796;2023-02-18T10:01:21;100245.19;;;12.54;68.50
62800;BME280;48842;51.046;13.796;2023-02-18T10:03:48;100237.31;;;12.54;68.67
62800;BME280;48842;51.046;13.796;2023-02-18T10:06:20;100232.97;;;12.53;68.21
62800;BME280;48842;51.046;13.796;2023-02-18T10:08:48;100237.31;;;12.54;68.16
62800;BME280;48842;51.046;13.796;2023-02-18T10:11:26;100227.72;;;12.53;68.52
62800;BME280;48842;51.046;13.796;2023-02-18T10:13:53;100225.09;;;12.51;68.16
62800;BME280;48842;51.046;13.796;2023-02-18T10:16:19;100226.81;;;12.51;68.65
62800;BME280;48842;51.046;13.796;2023-02-18T10:18:48;100221.56;;;12.51;68.48
62800;BME280;48842;51.046;13.796;2023-02-18T10:21:16;100213.69;;;12.52;68.54
62800;BME280;48842;51.046;13.796;2023-02-18T10:23:58;100211.09;;;12.46;69.97
62800;BME280;48842;51.046;13.796;2023-02-18T10:26:24;100200.56;;;12.51;69.88
62800;BME280;48842;51.046;13.796;2023-02-18T10:28:50;100204.03;;;12.56;70.61
62800;BME280;48842;51.046;13.796;2023-02-18T10:31:27;100196.94;;;12.66;70.66
62800;BME280;48842;51.046;13.796;2023-02-18T10:34:20;100194.28;;;12.72;70.56
62800;BME280;48842;51.046;13.796;2023-02-18T10:36:53;100181.03;;;12.86;69.74
62800;BME280;48842;51.046;13.796;2023-02-18T10:42:04;100188.88;;;12.89;69.91
62800;BME280;48842;51.046;13.796;2023-02-18T10:44:45;100173.94;;;12.97;70.24
62800;BME280;48842;51.046;13.796;2023-02-18T10:50:31;100176.59;;;12.94;70.65
62800;BME280;48842;51.046;13.796;2023-02-18T10:53:02;100164.34;;;12.91;69.80
62800;BME280;48842;51.046;13.796;2023-02-18T10:55:41;100157.31;;;12.90;70.33
62800;BME280;48842;51.046;13.796;2023-02-18T10:58:26;100141.47;;;13.03;70.58
62800;BME280;48842;51.046;13.796;2023-02-18T11:00:52;100134.34;;;13.14;69.87
62800;BME280;48842;51.046;13.796;2023-02-18T11:03:20;100129.00;;;13.22;69.51
62800;BME280;48842;51.046;13.796;2023-02-18T11:05:49;100126.41;;;13.17;69.36
62800;BME280;48842;51.046;13.796;2023-02-18T11:08:24;100121.91;;;13.27;69.36
62800;BME280;48842;51.046;13.796;2023-02-18T11:10:51;100115.88;;;13.19;68.90
62800;BME280;48842;51.046;13.796;2023-02-18T11:13:29;100108.75;;;13.28;68.99
62800;BME280;48842;51.046;13.796;2023-02-18T11:16:01;100092.88;;;13.39;69.03
62800;BME280;48842;51.046;13.796;2023-02-18T11:18:35;100080.50;;;13.48;68.65
62800;BME280;48842;51.046;13.796;2023-02-18T11:21:04;100083.94;;;13.54;68.40
62800;BME280;48842;51.046;13.796;2023-02-18T11:23:30;100069.78;;;13.63;68.23
62800;BME280;48842;51.046;13.796;2023-02-18T11:25:59;100065.41;;;13.62;67.89
62800;BME280;48842;51.046;13.796;2023-02-18T11:28:31;100059.25;;;13.63;67.70
62800;BME280;48842;51.046;13.796;2023-02-18T11:31:01;100066.28;;;13.64;66.88
62800;BME280;48842;51.046;13.796;2023-02-18T11:33:35;100059.16;;;13.69;66.68
62800;BME280;48842;51.046;13.796;2023-02-18T11:36:31;100065.31;;;13.70;65.89
62800;BME280;48842;51.046;13.796;2023-02-18T11:39:02;100044.94;;;13.83;66.15
62800;BME280;48842;51.046;13.796;2023-02-18T11:41:46;100037.00;;;13.84;64.84
62800;BME280;48842;51.046;13.796;2023-02-18T11:44:37;100032.56;;;13.89;65.06
62800;BME280;48842;51.046;13.796;2023-02-18T11:49:43;100030.75;;;13.93;64.00
62800;BME280;48842;51.046;13.796;2023-02-18T11:52:32;100028.06;;;13.98;63.71
62800;BME280;48842;51.046;13.796;2023-02-18T11:55:33;100028.28;;;13.82;63.00
62800;BME280;48842;51.046;13.796;2023-02-18T11:57:59;100019.31;;;13.95;62.68
62800;BME280;48842;51.046;13.796;2023-02-18T12:00:41;100009.69;;;13.93;62.62
62800;BME280;48842;51.046;13.796;2023-02-18T12:03:34;100013.06;;;14.01;62.78
62800;BME280;48842;51.046;13.796;2023-02-18T12:06:04;100001.72;;;13.98;63.17
62800;BME280;48842;51.046;13.796;2023-02-18T12:08:47;100015.69;;;14.03;63.29
62800;BME280;48842;51.046;13.796;2023-02-18T12:11:21;99997.38;;;13.95;64.07
62800;BME280;48842;51.046;13.796;2023-02-18T12:13:54;100003.66;;;13.86;64.56
62800;BME280;48842;51.046;13.796;2023-02-18T12:19:48;100004.50;;;13.88;64.74
62800;BME280;48842;51.046;13.796;2023-02-18T12:22:13;100006.31;;;13.85;64.80
62800;BME280;48842;51.046;13.796;2023-02-18T12:25:09;100008.06;;;13.83;65.63
62800;BME280;48842;51.046;13.796;2023-02-18T12:27:48;100002.75;;;13.89;65.17
62800;BME280;48842;51.046;13.796;2023-02-18T12:35:59;99997.53;;;13.83;64.95
62800;BME280;48842;51.046;13.796;2023-02-18T12:38:48;99986.38;;;13.68;65.17
62800;BME280;48842;51.046;13.796;2023-02-18T12:43:55;99997.75;;;13.70;64.22
62800;BME280;48842;51.046;13.796;2023-02-18T12:46:37;100038.22;;;13.61;64.07
62800;BME280;48842;51.046;13.796;2023-02-18T12:49:22;100004.16;;;13.52;64.09
62800;BME280;48842;51.046;13.796;2023-02-18T13:03:30;100013.66;;;13.63;66.02
62800;BME280;48842;51.046;13.796;2023-02-18T13:09:00;100012.50;;;13.82;65.11
62800;BME280;48842;51.046;13.796;2023-02-18T13:14:12;100007.63;;;13.54;63.81
62800;BME280;48842;51.046;13.796;2023-02-18T13:16:43;100002.41;;;13.50;63.95
62800;BME280;48842;51.046;13.796;2023-02-18T13:19:29;99993.75;;;13.41;63.49
62800;BME280;48842;51.046;13.796;2023-02-18T13:21:59;99999.06;;;13.37;62.62
62800;BME280;48842;51.046;13.796;2023-02-18T13:24:37;99997.34;;;13.31;62.45
62800;BME280;48842;51.046;13.796;2023-02-18T13:27:13;99994.63;;;13.42;62.09
62800;BME280;48842;51.046;13.796;2023-02-18T13:32:44;99998.91;;;13.48;60.76
62800;BME280;48842;51.046;13.796;2023-02-18T13:35:26;100002.47;;;13.47;60.18
62800;BME280;48842;51.046;13.796;2023-02-18T13:38:16;99992.97;;;13.33;59.68
62800;BME280;48842;51.046;13.796;2023-02-18T13:40:46;99985.16;;;13.25;60.72
62800;BME280;48842;51.046;13.796;2023-02-18T13:51:38;100018.00;;;12.90;61.60
62800;BME280;48842;51.046;13.796;2023-02-18T13:56:39;100014.34;;;13.02;61.74
62800;BME280;48842;51.046;13.796;2023-02-18T13:59:14;100015.97;;;13.17;60.93
62800;BME280;48842;51.046;13.796;2023-02-18T14:01:44;100015.13;;;13.12;60.58